Time;durP1;ratioP1;P1;durP2;ratioP2;P2;SDS_P1;SDS_P2;PMS_P1;PMS_P2;Temp;Humidity;BMP_temperature;BMP_pressure;BME280_temperature;BME280_humidity;BME280_pressure;Samples;Min_cycle;Max_cycle;Signal;HPM_P1;HPM_P2
2023/05/09 00:01:13;;;;;;;;;;;;;;;;;;5093645;28;20002;-72
2023/05/09 00:03:40;;;;;;;;;;;;;;;;;;5093373;28;19956;-74
2023/05/09 00:06:06;;;;;;;;;;;;;;;;;;5093896;28;20470;-73
2023/05/09 00:08:32;;;;;;;;;;;;;;;;;;5096709;28;20046;-72
2023/05/09 00:10:58;;;;;;;;;;;;;;;;;;5078366;28;19979;-73
2023/05/09 00:13:24;;;;;;;;;;;;;;;;;;5096601;28;19983;-72
2023/05/09 00:15:52;;;;;;;;;;;;;;;;;;5078294;28;19959;-73
2023/05/09 00:18:18;;;;;;;;;;;;;;;;;;5096459;28;19954;-71
2023/05/09 00:20:44;;;;;;;;;;;;;;;;;;5096410;28;20012;-72
2023/05/09 00:23:10;;;;;;;;;;;;;;;;;;5096940;28;20425;-72
2023/05/09 00:25:37;;;;;;;;;;;;;;;;;;5096332;28;19994;-72
2023/05/09 00:28:03;;;;;;;;;;;;;;;;;;5077940;28;19959;-72
2023/05/09 00:30:29;;;;;;;;;;;;;;;;;;5096117;28;19979;-72
2023/05/09 00:32:55;;;;;;;;;;;;;;;;;;5096460;28;19959;-72
2023/05/09 00:35:21;;;;;;;;;;;;;;;;;;5096131;28;19982;-73
2023/05/09 00:37:46;;;;;;;;;;;;;;;;;;5077968;28;19958;-72
2023/05/09 00:40:12;;;;;;;;;;;;;;;;;;5095658;28;19998;-72
2023/05/09 00:42:38;;;;;;;;;;;;;;;;;;5096555;28;20009;-72
2023/05/09 00:45:04;;;;;;;;;;;;;;;;;;5096808;28;19954;-72
2023/05/09 00:47:30;;;;;;;;;;;;;;;;;;5096183;28;19986;-73
2023/05/09 00:49:56;;;;;;;;;;;;;;;;;;5095861;28;19954;-72
2023/05/09 00:52:24;;;;;;;;;;;;;;;;;;5096305;28;19981;-72
2023/05/09 00:54:50;;;;;;;;;;;;;;;;;;5096355;28;20329;-71
2023/05/09 00:57:16;;;;;;;;;;;;;;;;;;5095991;28;19954;-72
2023/05/09 00:59:42;;;;;;;;;;;;;;;;;;5095695;28;19955;-72
2023/05/09 01:02:08;;;;;;;;;;;;;;;;;;5077513;28;20053;-73
2023/05/09 01:04:34;;;;;;;;;;;;;;;;;;5095870;28;19977;-73
2023/05/09 01:07:00;;;;;;;;;;;;;;;;;;5095510;28;19962;-71
2023/05/09 01:09:26;;;;;;;;;;;;;;;;;;5077060;28;19985;-73
2023/05/09 01:11:52;;;;;;;;;;;;;;;;;;5095638;28;19979;-72
2023/05/09 01:14:18;;;;;;;;;;;;;;;;;;5095395;28;19962;-72
2023/05/09 01:16:44;;;;;;;;;;;;;;;;;;5094902;28;20025;-72
2023/05/09 01:19:10;;;;;;;;;;;;;;;;;;5095594;28;19963;-72
2023/05/09 01:21:36;;;;;;;;;;;;;;;;;;5095251;28;19954;-72
2023/05/09 01:24:02;;;;;;;;;;;;;;;;;;5095219;28;19956;-72
2023/05/09 01:26:28;;;;;;;;;;;;;;;;;;5095412;28;20046;-72
2023/05/09 01:28:54;;;;;;;;;;;;;;;;;;5095104;28;20404;-71
2023/05/09 01:31:20;;;;;;;;;;;;;;;;;;5094948;28;19982;-72
2023/05/09 01:33:46;;;;;;;;;;;;;;;;;;5095566;28;19954;-72
2023/05/09 01:36:12;;;;;;;;;;;;;;;;;;5095267;28;20038;-73
2023/05/09 01:38:38;;;;;;;;;;;;;;;;;;5094859;28;20029;-73
2023/05/09 01:41:04;;;;;;;;;;;;;;;;;;5095491;28;20320;-73
2023/05/09 01:43:33;;;;;;;;;;;;;;;;;;5095198;28;19986;-73
2023/05/09 01:45:59;;;;;;;;;;;;;;;;;;5076556;28;19966;-73
2023/05/09 01:48:25;;;;;;;;;;;;;;;;;;5095281;28;20320;-73
2023/05/09 01:50:51;;;;;;;;;;;;;;;;;;5094874;28;19975;-73
2023/05/09 01:53:17;;;;;;;;;;;;;;;;;;5094667;28;20000;-72
2023/05/09 01:55:43;;;;;;;;;;;;;;;;;;5095160;28;20408;-72
2023/05/09 01:58:09;;;;;;;;;;;;;;;;;;5094538;28;19968;-73
2023/05/09 02:00:35;;;;;;;;;;;;;;;;;;5094781;28;19982;-73
2023/05/09 02:03:01;;;;;;;;;;;;;;;;;;5094751;28;19955;-73
2023/05/09 02:05:27;;;;;;;;;;;;;;;;;;5095000;28;19963;-72
2023/05/09 02:07:53;;;;;;;;;;;;;;;;;;5094392;28;20447;-72
2023/05/09 02:10:19;;;;;;;;;;;;;;;;;;5094784;28;20442;-72
2023/05/09 02:12:45;;;;;;;;;;;;;;;;;;5094550;28;19959;-73
2023/05/09 02:15:11;;;;;;;;;;;;;;;;;;5094565;28;19962;-72
2023/05/09 02:17:37;;;;;;;;;;;;;;;;;;5094241;28;19955;-73
2023/05/09 02:20:04;;;;;;;;;;;;;;;;;;5094516;28;20328;-72
2023/05/09 02:22:30;;;;;;;;;;;;;;;;;;5094464;28;19954;-72
2023/05/09 02:24:55;;;;;;;;;;;;;;;;;;5094640;28;19955;-73
2023/05/09 02:27:21;;;;;;;;;;;;;;;;;;5094361;28;19955;-72
2023/05/09 02:29:48;;;;;;;;;;;;;;;;;;5093326;28;20441;-72
2023/05/09 02:32:13;;;;;;;;;;;;;;;;;;5093927;28;19982;-72
2023/05/09 02:34:39;;;;;;;;;;;;;;;;;;5094250;28;19979;-73
2023/05/09 02:37:06;;;;;;;;;;;;;;;;;;5093956;28;19959;-72
2023/05/09 02:39:32;;;;;;;;;;;;;;;;;;5094050;28;19991;-73
2023/05/09 02:41:58;;;;;;;;;;;;;;;;;;5075791;28;19989;-72
2023/05/09 02:44:24;;;;;;;;;;;;;;;;;;5094931;28;20421;-71
2023/05/09 02:46:50;;;;;;;;;;;;;;;;;;5094151;28;19962;-72
2023/05/09 02:49:16;;;;;;;;;;;;;;;;;;5094363;28;19956;-72
2023/05/09 02:51:42;;;;;;;;;;;;;;;;;;5093942;28;19975;-72
2023/05/09 02:54:08;;;;;;;;;;;;;;;;;;5093775;28;19987;-73
2023/05/09 02:56:34;;;;;;;;;;;;;;;;;;5094288;28;19998;-72
2023/05/09 02:58:59;;;;;;;;;;;;;;;;;;5093693;28;20421;-73
2023/05/09 03:01:25;;;;;;;;;;;;;;;;;;5093934;28;19959;-72
2023/05/09 03:03:51;;;;;;;;;;;;;;;;;;5093666;28;20404;-73
2023/05/09 03:06:17;;;;;;;;;;;;;;;;;;5093637;28;20055;-73
2023/05/09 03:08:43;;;;;;;;;;;;;;;;;;5093936;28;19963;-72
2023/05/09 03:11:09;;;;;;;;;;;;;;;;;;5093796;28;20452;-71
2023/05/09 03:13:35;;;;;;;;;;;;;;;;;;5093581;28;19959;-71
2023/05/09 03:16:01;;;;;;;;;;;;;;;;;;5094052;28;19998;-73
2023/05/09 03:18:27;;;;;;;;;;;;;;;;;;5093487;28;19962;-73
2023/05/09 03:20:53;;;;;;;;;;;;;;;;;;5094020;28;19966;-74
2023/05/09 03:23:19;;;;;;;;;;;;;;;;;;5093458;28;19955;-75
2023/05/09 03:25:45;;;;;;;;;;;;;;;;;;5093710;28;19982;-74
2023/05/09 03:28:10;;;;;;;;;;;;;;;;;;5093672;28;19999;-75
2023/05/09 03:30:36;;;;;;;;;;;;;;;;;;5093298;28;20008;-73
2023/05/09 03:33:03;;;;;;;;;;;;;;;;;;5093963;28;20317;-74
2023/05/09 03:35:29;;;;;;;;;;;;;;;;;;5093391;28;19957;-76
2023/05/09 03:37:55;;;;;;;;;;;;;;;;;;5093278;28;19954;-75
2023/05/09 03:40:21;;;;;;;;;;;;;;;;;;5094220;28;19986;-74
2023/05/09 03:42:47;;;;;;;;;;;;;;;;;;5097489;28;20024;-74
2023/05/09 03:45:13;;;;;;;;;;;;;;;;;;5097666;28;20402;-76
2023/05/09 03:47:38;;;;;;;;;;;;;;;;;;5097399;28;19942;-75
2023/05/09 03:50:04;;;;;;;;;;;;;;;;;;5097323;28;20305;-74
2023/05/09 03:52:30;;;;;;;;;;;;;;;;;;5097481;28;19973;-75
2023/05/09 03:54:56;;;;;;;;;;;;;;;;;;5097273;28;19945;-74
2023/05/09 03:57:22;;;;;;;;;;;;;;;;;;5096927;28;20320;-74
2023/05/09 03:59:48;;;;;;;;;;;;;;;;;;5096904;28;19942;-75
2023/05/09 04:02:14;;;;;;;;;;;;;;;;;;5097098;28;19982;-72
2023/05/09 04:04:40;;;;;;;;;;;;;;;;;;5097082;28;19988;-74
2023/05/09 04:07:07;;;;;;;;;;;;;;;;;;5096731;28;20326;-72
2023/05/09 04:09:32;;;;;;;;;;;;;;;;;;5078235;28;19993;-74
2023/05/09 04:11:58;;;;;;;;;;;;;;;;;;5097116;28;20311;-73
2023/05/09 04:14:24;;;;;;;;;;;;;;;;;;5096865;28;20034;-75
2023/05/09 04:16:50;;;;;;;;;;;;;;;;;;5097113;28;19954;-74
2023/05/09 04:19:16;;;;;;;;;;;;;;;;;;5078115;28;19946;-72
2023/05/09 04:21:42;;;;;;;;;;;;;;;;;;5096707;28;19947;-72
2023/05/09 04:24:08;;;;;;;;;;;;;;;;;;5096397;28;20328;-73
2023/05/09 04:26:37;;;;;;;;;;;;;;;;;;5078152;28;20042;-74
2023/05/09 04:29:03;;;;;;;;;;;;;;;;;;5096615;28;19948;-72
2023/05/09 04:31:30;;;;;;;;;;;;;;;;;;5096127;28;19972;-73
2023/05/09 04:33:57;;;;;;;;;;;;;;;;;;5096783;28;20010;-74
2023/05/09 04:36:23;;;;;;;;;;;;;;;;;;5096166;28;19948;-72
2023/05/09 04:38:48;;;;;;;;;;;;;;;;;;5095948;28;20067;-74
2023/05/09 04:41:15;;;;;;;;;;;;;;;;;;5077954;28;19945;-73
2023/05/09 04:43:42;;;;;;;;;;;;;;;;;;5096644;28;19938;-72
2023/05/09 04:46:08;;;;;;;;;;;;;;;;;;5096516;28;19948;-71
2023/05/09 04:48:34;;;;;;;;;;;;;;;;;;5096229;28;20419;-73
2023/05/09 04:51:00;;;;;;;;;;;;;;;;;;5077590;28;19970;-73
2023/05/09 04:53:27;;;;;;;;;;;;;;;;;;5095402;28;20036;-72
2023/05/09 04:55:53;;;;;;;;;;;;;;;;;;5095788;28;19939;-74
2023/05/09 04:58:19;;;;;;;;;;;;;;;;;;5096035;28;20042;-73
2023/05/09 05:00:45;;;;;;;;;;;;;;;;;;5095722;28;19977;-72
2023/05/09 05:03:11;;;;;;;;;;;;;;;;;;5096193;28;20309;-72
2023/05/09 05:05:37;;;;;;;;;;;;;;;;;;5095582;28;20037;-74
2023/05/09 05:08:03;;;;;;;;;;;;;;;;;;5095582;28;19939;-74
2023/05/09 05:10:29;;;;;;;;;;;;;;;;;;5095468;28;20290;-74
2023/05/09 05:12:55;;;;;;;;;;;;;;;;;;5095504;28;19952;-72
2023/05/09 05:15:21;;;;;;;;;;;;;;;;;;5095746;28;19955;-73
2023/05/09 05:17:47;;;;;;;;;;;;;;;;;;5095646;28;19942;-73
2023/05/09 05:20:12;;;;;;;;;;;;;;;;;;5095625;28;19937;-74
2023/05/09 05:22:38;;;;;;;;;;;;;;;;;;5095328;28;19984;-74
2023/05/09 05:25:04;;;;;;;;;;;;;;;;;;5095484;28;19947;-73
2023/05/09 05:27:30;;;;;;;;;;;;;;;;;;5095190;28;20293;-74
2023/05/09 05:29:56;;;;;;;;;;;;;;;;;;5095162;28;19953;-72
2023/05/09 05:32:22;;;;;;;;;;;;;;;;;;5094963;28;20422;-72
2023/05/09 05:34:48;;;;;;;;;;;;;;;;;;5095004;28;19946;-72
2023/05/09 05:37:14;;;;;;;;;;;;;;;;;;5095282;28;20288;-72
2023/05/09 05:39:40;;;;;;;;;;;;;;;;;;5094839;28;19986;-72
2023/05/09 05:42:05;;;;;;;;;;;;;;;;;;5094888;28;19958;-71
2023/05/09 05:44:31;;;;;;;;;;;;;;;;;;5095370;28;19942;-74
2023/05/09 05:46:57;;;;;;;;;;;;;;;;;;5094802;28;19949;-73
2023/05/09 05:49:23;;;;;;;;;;;;;;;;;;5094750;28;19949;-74
2023/05/09 05:51:49;;;;;;;;;;;;;;;;;;5095232;28;19967;-73
2023/05/09 05:54:15;;;;;;;;;;;;;;;;;;5076516;28;19995;-73
2023/05/09 05:56:42;;;;;;;;;;;;;;;;;;5094654;28;20345;-73
2023/05/09 05:59:08;;;;;;;;;;;;;;;;;;5076222;28;19986;-71
2023/05/09 06:01:34;;;;;;;;;;;;;;;;;;5076302;28;20365;-72
2023/05/09 06:04:00;;;;;;;;;;;;;;;;;;5095006;28;19946;-72
2023/05/09 06:06:26;;;;;;;;;;;;;;;;;;5094479;28;19958;-72
2023/05/09 06:08:52;;;;;;;;;;;;;;;;;;5076231;28;19943;-73
2023/05/09 06:11:17;;;;;;;;;;;;;;;;;;5094595;28;20009;-72
2023/05/09 06:13:43;;;;;;;;;;;;;;;;;;5076108;28;19984;-73
2023/05/09 06:16:09;;;;;;;;;;;;;;;;;;5094251;28;19955;-71
2023/05/09 06:18:36;;;;;;;;;;;;;;;;;;5094790;28;19962;-72
2023/05/09 06:21:02;;;;;;;;;;;;;;;;;;5094479;28;19973;-73
2023/05/09 06:23:28;;;;;;;;;;;;;;;;;;5076018;28;19951;-72
2023/05/09 06:25:54;;;;;;;;;;;;;;;;;;5094431;28;20294;-73
2023/05/09 06:28:20;;;;;;;;;;;;;;;;;;5094439;28;19955;-72
2023/05/09 06:30:46;;;;;;;;;;;;;;;;;;5093932;28;20470;-74
2023/05/09 06:33:11;;;;;;;;;;;;;;;;;;5094316;28;19955;-72
2023/05/09 06:35:37;;;;;;;;;;;;;;;;;;5093921;28;19955;-73
2023/05/09 06:38:03;;;;;;;;;;;;;;;;;;5093866;28;19967;-72
2023/05/09 06:40:29;;;;;;;;;;;;;;;;;;5075568;28;19999;-73
2023/05/09 06:42:55;;;;;;;;;;;;;;;;;;5094418;28;20361;-73
2023/05/09 06:45:23;;;;;;;;;;;;;;;;;;5093644;28;21417;-73
2023/05/09 06:47:49;;;;;;;;;;;;;;;;;;5076526;28;20016;-74
2023/05/09 06:50:15;;;;;;;;;;;;;;;;;;5093791;28;19959;-71
2023/05/09 06:52:41;;;;;;;;;;;;;;;;;;5093919;28;20320;-72
2023/05/09 06:55:07;;;;;;;;;;;;;;;;;;5102437;28;19959;-74
2023/05/09 06:57:33;;;;;;;;;;;;;;;;;;5088714;28;20430;-74
2023/05/09 06:59:59;;;;;;;;;;;;;;;;;;5114012;28;19958;-73
2023/05/09 07:02:24;;;;;;;;;;;;;;;;;;5095639;28;19959;-73
2023/05/09 07:04:50;;;;;;;;;;;;;;;;;;5094135;28;19959;-72
2023/05/09 07:07:16;;;;;;;;;;;;;;;;;;5099322;28;19966;-71
2023/05/09 07:09:42;;;;;;;;;;;;;;;;;;5113287;28;20085;-75
2023/05/09 07:12:08;;;;;;;;;;;;;;;;;;5094785;28;19979;-71
2023/05/09 07:14:34;;;;;;;;;;;;;;;;;;5113984;28;19953;-71
2023/05/09 07:17:00;;;;;;;;;;;;;;;;;;5118302;28;20124;-71
2023/05/09 07:19:26;;;;;;;;;;;;;;;;;;5118313;28;20305;-72
2023/05/09 07:21:52;;;;;;;;;;;;;;;;;;5117939;28;19963;-71
2023/05/09 07:24:18;;;;;;;;;;;;;;;;;;5117235;28;19963;-73
2023/05/09 07:26:44;;;;;;;;;;;;;;;;;;5117231;28;19965;-76
2023/05/09 07:29:10;;;;;;;;;;;;;;;;;;5117730;28;20049;-73
2023/05/09 07:31:35;;;;;;;;;;;;;;;;;;5116978;28;19989;-72
2023/05/09 07:34:01;;;;;;;;;;;;;;;;;;5117559;28;19994;-74
2023/05/09 07:36:27;;;;;;;;;;;;;;;;;;5117723;28;19963;-75
2023/05/09 07:38:53;;;;;;;;;;;;;;;;;;5117002;28;19994;-73
2023/05/09 07:41:19;;;;;;;;;;;;;;;;;;5098874;28;19963;-76
2023/05/09 07:43:45;;;;;;;;;;;;;;;;;;5099121;28;19962;-76
2023/05/09 07:46:11;;;;;;;;;;;;;;;;;;5118067;28;19955;-72
2023/05/09 07:48:37;;;;;;;;;;;;;;;;;;5116113;28;19955;-77
2023/05/09 07:51:03;;;;;;;;;;;;;;;;;;5116068;28;19979;-79
2023/05/09 07:53:29;;;;;;;;;;;;;;;;;;5116698;28;19995;-78
2023/05/09 07:55:55;;;;;;;;;;;;;;;;;;5115899;28;20728;-76
2023/05/09 07:58:21;;;;;;;;;;;;;;;;;;5115635;28;19969;-71
2023/05/09 08:00:47;;;;;;;;;;;;;;;;;;5097853;28;20012;-73
2023/05/09 08:03:13;;;;;;;;;;;;;;;;;;5117527;28;19994;-71
2023/05/09 08:05:39;;;;;;;;;;;;;;;;;;5114250;28;19959;-74
2023/05/09 08:08:05;;;;;;;;;;;;;;;;;;5115266;28;20500;-78
2023/05/09 08:10:32;;;;;;;;;;;;;;;;;;5098294;28;19966;-73
2023/05/09 08:12:58;;;;;;;;;;;;;;;;;;5117092;28;19955;-73
2023/05/09 08:15:24;;;;;;;;;;;;;;;;;;5116466;28;19986;-74
2023/05/09 08:17:50;;;;;;;;;;;;;;;;;;5115589;28;19965;-75
2023/05/09 08:20:16;;;;;;;;;;;;;;;;;;5111574;28;19967;-73
2023/05/09 08:22:42;;;;;;;;;;;;;;;;;;5093944;28;19967;-74
2023/05/09 08:25:08;;;;;;;;;;;;;;;;;;5115758;28;19974;-75
2023/05/09 08:27:34;;;;;;;;;;;;;;;;;;5114760;28;20374;-73
2023/05/09 08:30:00;;;;;;;;;;;;;;;;;;5116143;28;20008;-76
2023/05/09 08:32:26;;;;;;;;;;;;;;;;;;5115860;28;19986;-77
2023/05/09 08:34:52;;;;;;;;;;;;;;;;;;5116450;28;19959;-76
2023/05/09 08:37:18;;;;;;;;;;;;;;;;;;5115944;28;20049;-75
2023/05/09 08:39:44;;;;;;;;;;;;;;;;;;5114918;28;19989;-72
2023/05/09 08:42:10;;;;;;;;;;;;;;;;;;5115303;28;19966;-73
2023/05/09 08:44:36;;;;;;;;;;;;;;;;;;5116167;28;19967;-73
2023/05/09 08:47:02;;;;;;;;;;;;;;;;;;5117310;28;19990;-73
2023/05/09 08:49:27;;;;;;;;;;;;;;;;;;5116620;28;19962;-73
2023/05/09 08:51:53;;;;;;;;;;;;;;;;;;5116655;28;19974;-74
2023/05/09 08:54:19;;;;;;;;;;;;;;;;;;5116553;28;20436;-72
2023/05/09 08:56:45;;;;;;;;;;;;;;;;;;5116051;28;20011;-72
2023/05/09 08:59:11;;;;;;;;;;;;;;;;;;5115750;28;20403;-74
2023/05/09 09:01:37;;;;;;;;;;;;;;;;;;5116435;28;19955;-72
2023/05/09 09:04:03;;;;;;;;;;;;;;;;;;5115949;28;20382;-72
2023/05/09 09:06:29;;;;;;;;;;;;;;;;;;5115426;28;20016;-72
2023/05/09 09:08:55;;;;;;;;;;;;;;;;;;5112525;28;19963;-75
2023/05/09 09:11:21;;;;;;;;;;;;;;;;;;5096683;28;19975;-74
2023/05/09 09:13:47;;;;;;;;;;;;;;;;;;5097407;28;20319;-75
2023/05/09 09:16:13;;;;;;;;;;;;;;;;;;5115876;28;20004;-74
2023/05/09 09:18:39;;;;;;;;;;;;;;;;;;5097581;28;19958;-74
2023/05/09 09:21:05;;;;;;;;;;;;;;;;;;5108874;28;19970;-74
2023/05/09 09:23:31;;;;;;;;;;;;;;;;;;5113861;28;20037;-75
2023/05/09 09:25:56;;;;;;;;;;;;;;;;;;5115304;28;19959;-76
2023/05/09 09:28:22;;;;;;;;;;;;;;;;;;5115415;28;19958;-77
2023/05/09 09:30:48;;;;;;;;;;;;;;;;;;5116009;28;19986;-76
2023/05/09 09:33:14;;;;;;;;;;;;;;;;;;5097244;28;19958;-76
2023/05/09 09:35:42;;;;;;;;;;;;;;;;;;5116023;28;20343;-76
2023/05/09 09:38:08;;;;;;;;;;;;;;;;;;5096682;28;19966;-76
2023/05/09 09:40:36;;;;;;;;;;;;;;;;;;5115323;28;19959;-76
2023/05/09 09:43:02;;;;;;;;;;;;;;;;;;5114596;28;19963;-77
2023/05/09 09:45:28;;;;;;;;;;;;;;;;;;5115137;28;20012;-77
2023/05/09 09:47:54;;;;;;;;;;;;;;;;;;5114689;28;19969;-78
2023/05/09 09:50:24;;;;;;;;;;;;;;;;;;5114470;28;19958;-76
2023/05/09 09:52:50;;;;;;;;;;;;;;;;;;5111618;28;19989;-75
2023/05/09 09:55:16;;;;;;;;;;;;;;;;;;5114610;28;20015;-76
2023/05/09 09:57:44;;;;;;;;;;;;;;;;;;5096170;28;19966;-77
2023/05/09 10:00:10;;;;;;;;;;;;;;;;;;5107945;28;19962;-78
2023/05/09 10:02:36;;;;;;;;;;;;;;;;;;5108278;28;19967;-73
2023/05/09 10:05:02;;;;;;;;;;;;;;;;;;5109130;28;19959;-74
2023/05/09 10:07:28;;;;;;;;;;;;;;;;;;5113080;28;20432;-76
2023/05/09 10:09:54;;;;;;;;;;;;;;;;;;5096165;28;20049;-77
2023/05/09 10:12:22;;;;;;;;;;;;;;;;;;5094636;28;20470;-76
2023/05/09 10:14:48;;;;;;;;;;;;;;;;;;5106566;28;19986;-77
2023/05/09 10:17:14;;;;;;;;;;;;;;;;;;5094933;28;20408;-76
2023/05/09 10:19:40;;;;;;;;;;;;;;;;;;5094364;28;19959;-74
2023/05/09 10:22:05;;;;;;;;;;;;;;;;;;5094750;28;20053;-76
2023/05/09 10:24:31;;;;;;;;;;;;;;;;;;5095034;28;19965;-74
2023/05/09 10:26:57;;;;;;;;;;;;;;;;;;5104185;28;19985;-72
2023/05/09 10:29:23;;;;;;;;;;;;;;;;;;5113243;28;19963;-74
2023/05/09 10:31:49;;;;;;;;;;;;;;;;;;5114258;28;19985;-74
2023/05/09 10:34:15;;;;;;;;;;;;;;;;;;5114354;28;19955;-75
2023/05/09 10:36:41;;;;;;;;;;;;;;;;;;5114335;28;19955;-74
2023/05/09 10:39:07;;;;;;;;;;;;;;;;;;5114233;28;20379;-75
2023/05/09 10:41:33;;;;;;;;;;;;;;;;;;5114334;28;19955;-75
2023/05/09 10:43:59;;;;;;;;;;;;;;;;;;5114257;28;20061;-75
2023/05/09 10:46:26;;;;;;;;;;;;;;;;;;5115393;28;19955;-75
2023/05/09 10:48:52;;;;;;;;;;;;;;;;;;5114181;28;20040;-75
2023/05/09 10:51:18;;;;;;;;;;;;;;;;;;5113749;28;19982;-75
2023/05/09 10:53:43;;;;;;;;;;;;;;;;;;5114129;28;20355;-74
2023/05/09 10:56:09;;;;;;;;;;;;;;;;;;5114135;28;20019;-74
2023/05/09 10:58:37;;;;;;;;;;;;;;;;;;5095878;28;20002;-75
2023/05/09 11:01:03;;;;;;;;;;;;;;;;;;5114379;28;19955;-75
2023/05/09 11:03:29;;;;;;;;;;;;;;;;;;5114036;28;19962;-75
2023/05/09 11:05:55;;;;;;;;;;;;;;;;;;5114082;28;20074;-74
2023/05/09 11:08:21;;;;;;;;;;;;;;;;;;5095787;28;19959;-75
2023/05/09 11:10:47;;;;;;;;;;;;;;;;;;5114231;28;19955;-75
2023/05/09 11:13:13;;;;;;;;;;;;;;;;;;5114247;28;19962;-74
2023/05/09 11:15:39;;;;;;;;;;;;;;;;;;5113936;28;20369;-75
2023/05/09 11:18:05;;;;;;;;;;;;;;;;;;5095751;28;19963;-74
2023/05/09 11:20:31;;;;;;;;;;;;;;;;;;5113925;28;19993;-74
2023/05/09 11:22:57;;;;;;;;;;;;;;;;;;5113904;28;19959;-74
2023/05/09 11:25:23;;;;;;;;;;;;;;;;;;5114126;28;20008;-75
2023/05/09 11:27:50;;;;;;;;;;;;;;;;;;5113832;28;19955;-75
2023/05/09 11:30:16;;;;;;;;;;;;;;;;;;5113695;28;19958;-75
2023/05/09 11:32:42;;;;;;;;;;;;;;;;;;5113670;28;19974;-74
2023/05/09 11:35:08;;;;;;;;;;;;;;;;;;5095546;28;20050;-74
2023/05/09 11:37:34;;;;;;;;;;;;;;;;;;5114305;28;20008;-74
2023/05/09 11:40:01;;;;;;;;;;;;;;;;;;5095248;28;19995;-74
2023/05/09 11:42:27;;;;;;;;;;;;;;;;;;5114290;28;19986;-74
2023/05/09 11:44:53;;;;;;;;;;;;;;;;;;5113680;28;20379;-74
2023/05/09 11:47:20;;;;;;;;;;;;;;;;;;5114449;28;20028;-74
2023/05/09 11:49:46;;;;;;;;;;;;;;;;;;5113619;28;20049;-75
2023/05/09 11:52:12;;;;;;;;;;;;;;;;;;5095321;28;20470;-74
2023/05/09 11:54:38;;;;;;;;;;;;;;;;;;5095263;28;20472;-74
2023/05/09 11:57:04;;;;;;;;;;;;;;;;;;5113537;28;19955;-74
2023/05/09 11:59:30;;;;;;;;;;;;;;;;;;5094921;28;19996;-74
2023/05/09 12:01:56;;;;;;;;;;;;;;;;;;5097429;28;20343;-74
2023/05/09 12:04:21;;;;;;;;;;;;;;;;;;5117851;28;20458;-74
2023/05/09 12:06:50;;;;;;;;;;;;;;;;;;5117513;28;20056;-74
2023/05/09 12:09:18;;;;;;;;;;;;;;;;;;5117414;28;20007;-74
2023/05/09 12:11:44;;;;;;;;;;;;;;;;;;5117048;28;20343;-74
2023/05/09 12:14:10;;;;;;;;;;;;;;;;;;5117602;28;19962;-74
2023/05/09 12:16:36;;;;;;;;;;;;;;;;;;5116986;28;19959;-74
2023/05/09 12:19:03;;;;;;;;;;;;;;;;;;5117514;28;19998;-74
2023/05/09 12:21:30;;;;;;;;;;;;;;;;;;5116924;28;19955;-74
2023/05/09 12:23:56;;;;;;;;;;;;;;;;;;5116850;28;19966;-75
2023/05/09 12:26:22;;;;;;;;;;;;;;;;;;5116790;28;19955;-74
2023/05/09 12:28:48;;;;;;;;;;;;;;;;;;5117368;28;20400;-75
2023/05/09 12:31:14;;;;;;;;;;;;;;;;;;5116546;28;19979;-75
2023/05/09 12:33:40;;;;;;;;;;;;;;;;;;5116963;28;19961;-74
2023/05/09 12:36:07;;;;;;;;;;;;;;;;;;5116631;28;20009;-75
2023/05/09 12:38:33;;;;;;;;;;;;;;;;;;5097995;28;19991;-74
2023/05/09 12:40:59;;;;;;;;;;;;;;;;;;5116865;28;20042;-75
2023/05/09 12:43:25;;;;;;;;;;;;;;;;;;5098128;28;19997;-74
2023/05/09 12:45:50;;;;;;;;;;;;;;;;;;5117023;28;19959;-74
2023/05/09 12:48:16;;;;;;;;;;;;;;;;;;5116442;28;20023;-74
2023/05/09 12:50:42;;;;;;;;;;;;;;;;;;5116328;28;20020;-74
2023/05/09 12:53:08;;;;;;;;;;;;;;;;;;5116914;28;20377;-74
2023/05/09 12:55:34;;;;;;;;;;;;;;;;;;5116583;28;20049;-74
2023/05/09 12:58:01;;;;;;;;;;;;;;;;;;5116264;28;19990;-74
2023/05/09 13:00:26;;;;;;;;;;;;;;;;;;5116171;28;19955;-73
2023/05/09 13:02:52;;;;;;;;;;;;;;;;;;5097875;28;19959;-74
2023/05/09 13:05:18;;;;;;;;;;;;;;;;;;5115994;28;19997;-74
2023/05/09 13:07:44;;;;;;;;;;;;;;;;;;5116522;28;19959;-74
2023/05/09 13:10:10;;;;;;;;;;;;;;;;;;5115978;28;19961;-74
2023/05/09 13:12:37;;;;;;;;;;;;;;;;;;5115500;28;20074;-74
2023/05/09 13:15:03;;;;;;;;;;;;;;;;;;5115941;28;19978;-74
2023/05/09 13:17:29;;;;;;;;;;;;;;;;;;5116431;28;19955;-74
2023/05/09 13:19:55;;;;;;;;;;;;;;;;;;5116107;28;19955;-74
2023/05/09 13:22:21;;;;;;;;;;;;;;;;;;5115741;28;19962;-74
2023/05/09 13:24:47;;;;;;;;;;;;;;;;;;5115675;28;19962;-74
2023/05/09 13:27:12;;;;;;;;;;;;;;;;;;5116167;28;20316;-74
2023/05/09 13:29:38;;;;;;;;;;;;;;;;;;5115848;28;20061;-75
2023/05/09 13:32:04;;;;;;;;;;;;;;;;;;5115394;28;19979;-74
2023/05/09 13:34:30;;;;;;;;;;;;;;;;;;5115507;28;19955;-75
2023/05/09 13:36:56;;;;;;;;;;;;;;;;;;5115448;28;19963;-74
2023/05/09 13:39:22;;;;;;;;;;;;;;;;;;5115296;28;19991;-74
2023/05/09 13:41:50;;;;;;;;;;;;;;;;;;5115842;28;19962;-74
2023/05/09 13:44:16;;;;;;;;;;;;;;;;;;5115199;28;20040;-75
2023/05/09 13:46:41;;;;;;;;;;;;;;;;;;5116355;28;20424;-74
2023/05/09 13:49:07;;;;;;;;;;;;;;;;;;5115474;28;19960;-74
2023/05/09 13:51:33;;;;;;;;;;;;;;;;;;5115371;28;19975;-74
2023/05/09 13:53:59;;;;;;;;;;;;;;;;;;5115392;28;20431;-74
2023/05/09 13:56:26;;;;;;;;;;;;;;;;;;5115073;28;19954;-74
2023/05/09 13:58:52;;;;;;;;;;;;;;;;;;5115380;28;19978;-74
2023/05/09 14:01:18;;;;;;;;;;;;;;;;;;5114988;28;20416;-74
2023/05/09 14:03:46;;;;;;;;;;;;;;;;;;5096613;28;19959;-74
2023/05/09 14:06:12;;;;;;;;;;;;;;;;;;5115154;28;19955;-74
2023/05/09 14:08:38;;;;;;;;;;;;;;;;;;5114841;28;19981;-74
2023/05/09 14:11:04;;;;;;;;;;;;;;;;;;5115027;28;19975;-74
2023/05/09 14:13:30;;;;;;;;;;;;;;;;;;5114735;28;19955;-74
2023/05/09 14:15:56;;;;;;;;;;;;;;;;;;5114732;28;19962;-74
2023/05/09 14:18:22;;;;;;;;;;;;;;;;;;5114967;28;19955;-74
2023/05/09 14:20:48;;;;;;;;;;;;;;;;;;5114627;28;19959;-74
2023/05/09 14:23:14;;;;;;;;;;;;;;;;;;5114482;28;19954;-74
2023/05/09 14:25:41;;;;;;;;;;;;;;;;;;5113875;28;19962;-74
2023/05/09 14:28:08;;;;;;;;;;;;;;;;;;5096243;28;19984;-74
2023/05/09 14:30:34;;;;;;;;;;;;;;;;;;5114434;28;19978;-74
2023/05/09 14:33:00;;;;;;;;;;;;;;;;;;5114375;28;19978;-74
2023/05/09 14:35:26;;;;;;;;;;;;;;;;;;5114966;28;20416;-74
2023/05/09 14:37:52;;;;;;;;;;;;;;;;;;5114641;28;19958;-74
2023/05/09 14:40:18;;;;;;;;;;;;;;;;;;5113971;28;20013;-74
2023/05/09 14:42:44;;;;;;;;;;;;;;;;;;5114891;28;20400;-74
2023/05/09 14:45:11;;;;;;;;;;;;;;;;;;5114574;28;19954;-74
2023/05/09 14:47:37;;;;;;;;;;;;;;;;;;5114782;28;19959;-74
2023/05/09 14:50:03;;;;;;;;;;;;;;;;;;5114207;28;19977;-74
2023/05/09 14:52:29;;;;;;;;;;;;;;;;;;5114375;28;19975;-74
2023/05/09 14:54:55;;;;;;;;;;;;;;;;;;5114121;28;19955;-74
2023/05/09 14:57:21;;;;;;;;;;;;;;;;;;5114395;28;19955;-74
2023/05/09 14:59:47;;;;;;;;;;;;;;;;;;5114052;28;20089;-74
2023/05/09 15:02:12;;;;;;;;;;;;;;;;;;5114085;28;19978;-76
2023/05/09 15:04:40;;;;;;;;;;;;;;;;;;5114068;28;20036;-73
2023/05/09 15:07:06;;;;;;;;;;;;;;;;;;5114306;28;19959;-74
2023/05/09 15:09:32;;;;;;;;;;;;;;;;;;5114033;28;19961;-74
2023/05/09 15:11:58;;;;;;;;;;;;;;;;;;5113906;28;19974;-72
2023/05/09 15:14:24;;;;;;;;;;;;;;;;;;5113988;28;19954;-75
2023/05/09 15:16:51;;;;;;;;;;;;;;;;;;5114288;28;20042;-73
2023/05/09 15:19:17;;;;;;;;;;;;;;;;;;5113934;28;20042;-75
2023/05/09 15:21:42;;;;;;;;;;;;;;;;;;5113903;28;20013;-72
2023/05/09 15:24:08;;;;;;;;;;;;;;;;;;5114416;28;20046;-72
2023/05/09 15:26:34;;;;;;;;;;;;;;;;;;5095595;28;19985;-72
2023/05/09 15:29:01;;;;;;;;;;;;;;;;;;5095533;28;19966;-73
2023/05/09 15:31:26;;;;;;;;;;;;;;;;;;5113665;28;20470;-73
2023/05/09 15:33:52;;;;;;;;;;;;;;;;;;5113761;28;20045;-74
2023/05/09 15:36:18;;;;;;;;;;;;;;;;;;5115345;28;19955;-72
2023/05/09 15:38:47;;;;;;;;;;;;;;;;;;5117616;28;20404;-73
2023/05/09 15:41:14;;;;;;;;;;;;;;;;;;5118071;28;20431;-72
2023/05/09 15:43:40;;;;;;;;;;;;;;;;;;5117660;28;19962;-74
2023/05/09 15:46:06;;;;;;;;;;;;;;;;;;5118148;28;20348;-72
2023/05/09 15:48:32;;;;;;;;;;;;;;;;;;5118160;28;20012;-73
2023/05/09 15:50:58;;;;;;;;;;;;;;;;;;5117433;28;20424;-73
2023/05/09 15:53:26;;;;;;;;;;;;;;;;;;5117497;28;19976;-75
2023/05/09 15:55:52;;;;;;;;;;;;;;;;;;5099137;28;19959;-73
2023/05/09 15:58:18;;;;;;;;;;;;;;;;;;5117959;28;20457;-72
2023/05/09 16:00:44;;;;;;;;;;;;;;;;;;5117641;28;20008;-73
2023/05/09 16:03:10;;;;;;;;;;;;;;;;;;5117258;28;20015;-73
2023/05/09 16:05:39;;;;;;;;;;;;;;;;;;5117561;28;19962;-74
2023/05/09 16:08:05;;;;;;;;;;;;;;;;;;5117242;28;19997;-72
2023/05/09 16:10:31;;;;;;;;;;;;;;;;;;5117461;28;19955;-72
2023/05/09 16:12:57;;;;;;;;;;;;;;;;;;5117375;28;20396;-75
2023/05/09 16:15:23;;;;;;;;;;;;;;;;;;5117666;28;19962;-73
2023/05/09 16:17:49;;;;;;;;;;;;;;;;;;5117032;28;20000;-71
2023/05/09 16:20:15;;;;;;;;;;;;;;;;;;5117214;28;19962;-75
2023/05/09 16:22:40;;;;;;;;;;;;;;;;;;5116882;28;19959;-75
2023/05/09 16:25:07;;;;;;;;;;;;;;;;;;5116889;28;20370;-75
2023/05/09 16:27:32;;;;;;;;;;;;;;;;;;5117102;28;19955;-73
2023/05/09 16:29:58;;;;;;;;;;;;;;;;;;5117068;28;19962;-74
2023/05/09 16:32:24;;;;;;;;;;;;;;;;;;5116606;28;19985;-73
2023/05/09 16:34:50;;;;;;;;;;;;;;;;;;5116976;28;20019;-71
2023/05/09 16:37:17;;;;;;;;;;;;;;;;;;5116946;28;20345;-73